sensor_id;sensor_type;location;lat;lon;timestamp;temperature;humidity
47310;DHT22;33046;52.270;6.832;2022-09-27T00:01:46;13.40;99.90
47310;DHT22;33046;52.270;6.832;2022-09-27T00:03:53;13.40;99.90
47310;DHT22;33046;52.270;6.832;2022-09-27T00:06:01;13.40;99.90
47310;DHT22;33046;52.270;6.832;2022-09-27T00:08:08;13.40;99.90
47310;DHT22;33046;52.270;6.832;2022-09-27T00:10:15;13.40;99.90
47310;DHT22;33046;52.270;6.832;2022-09-27T00:12:23;13.40;99.90
47310;DHT22;33046;52.270;6.832;2022-09-27T00:14:29;13.40;99.90
47310;DHT22;33046;52.270;6.832;2022-09-27T00:16:37;13.40;99.90
47310;DHT22;33046;52.270;6.832;2022-09-27T00:18:46;13.40;99.90
47310;DHT22;33046;52.270;6.832;2022-09-27T00:20:52;13.40;99.90
47310;DHT22;33046;52.270;6.832;2022-09-27T00:22:59;13.40;99.90
47310;DHT22;33046;52.270;6.832;2022-09-27T00:25:06;13.40;99.90
47310;DHT22;33046;52.270;6.832;2022-09-27T00:27:13;13.40;99.90
47310;DHT22;33046;52.270;6.832;2022-09-27T00:29:20;13.30;99.90
47310;DHT22;33046;52.270;6.832;2022-09-27T00:31:29;13.30;99.90
47310;DHT22;33046;52.270;6.832;2022-09-27T00:33:36;13.40;99.90
47310;DHT22;33046;52.270;6.832;2022-09-27T00:35:45;13.30;99.90
47310;DHT22;33046;52.270;6.832;2022-09-27T00:37:51;13.30;99.90
47310;DHT22;33046;52.270;6.832;2022-09-27T00:39:58;13.30;99.90
47310;DHT22;33046;52.270;6.832;2022-09-27T00:42:07;13.30;99.90
47310;DHT22;33046;52.270;6.832;2022-09-27T00:47:08;13.30;99.90
47310;DHT22;33046;52.270;6.832;2022-09-27T00:49:19;13.30;99.90
47310;DHT22;33046;52.270;6.832;2022-09-27T00:51:32;13.30;99.90
47310;DHT22;33046;52.270;6.832;2022-09-27T00:53:42;13.30;99.90
47310;DHT22;33046;52.270;6.832;2022-09-27T00:55:52;13.20;99.90
47310;DHT22;33046;52.270;6.832;2022-09-27T00:58:00;13.20;99.90
47310;DHT22;33046;52.270;6.832;2022-09-27T01:00:09;13.20;99.90
47310;DHT22;33046;52.270;6.832;2022-09-27T01:02:17;13.30;99.90
47310;DHT22;33046;52.270;6.832;2022-09-27T01:04:27;13.20;99.90
47310;DHT22;33046;52.270;6.832;2022-09-27T01:06:37;13.20;99.90
47310;DHT22;33046;52.270;6.832;2022-09-27T01:08:44;13.20;99.90
47310;DHT22;33046;52.270;6.832;2022-09-27T01:10:57;13.20;99.90
47310;DHT22;33046;52.270;6.832;2022-09-27T01:13:12;13.20;99.90
47310;DHT22;33046;52.270;6.832;2022-09-27T01:15:28;13.20;99.90
47310;DHT22;33046;52.270;6.832;2022-09-27T01:17:45;13.20;99.90
47310;DHT22;33046;52.270;6.832;2022-09-27T01:22:54;13.20;99.90
47310;DHT22;33046;52.270;6.832;2022-09-27T01:25:18;13.20;99.90
47310;DHT22;33046;52.270;6.832;2022-09-27T01:27:59;13.20;99.90
47310;DHT22;33046;52.270;6.832;2022-09-27T01:30:24;13.20;99.90
47310;DHT22;33046;52.270;6.832;2022-09-27T01:32:36;13.10;99.90
47310;DHT22;33046;52.270;6.832;2022-09-27T01:34:47;13.10;99.90
47310;DHT22;33046;52.270;6.832;2022-09-27T01:37:06;13.10;99.90
47310;DHT22;33046;52.270;6.832;2022-09-27T01:39:31;13.10;99.90
47310;DHT22;33046;52.270;6.832;2022-09-27T01:42:03;13.10;99.90
47310;DHT22;33046;52.270;6.832;2022-09-27T01:44:24;13.10;99.90
47310;DHT22;33046;52.270;6.832;2022-09-27T01:46:44;13.10;99.90
47310;DHT22;33046;52.270;6.832;2022-09-27T01:49:36;13.10;99.90
47310;DHT22;33046;52.270;6.832;2022-09-27T01:51:46;13.10;99.90
47310;DHT22;33046;52.270;6.832;2022-09-27T01:53:56;13.10;99.90
47310;DHT22;33046;52.270;6.832;2022-09-27T01:56:33;13.10;99.90
47310;DHT22;33046;52.270;6.832;2022-09-27T01:58:49;13.10;99.90
47310;DHT22;33046;52.270;6.832;2022-09-27T02:00:59;13.10;99.90
47310;DHT22;33046;52.270;6.832;2022-09-27T02:03:11;13.00;99.90
47310;DHT22;33046;52.270;6.832;2022-09-27T02:05:20;13.10;99.90
47310;DHT22;33046;52.270;6.832;2022-09-27T02:07:40;13.00;99.90
47310;DHT22;33046;52.270;6.832;2022-09-27T02:09:53;13.00;99.90
47310;DHT22;33046;52.270;6.832;2022-09-27T02:12:07;13.00;99.90
47310;DHT22;33046;52.270;6.832;2022-09-27T02:14:19;13.00;99.90
47310;DHT22;33046;52.270;6.832;2022-09-27T02:16:38;13.00;99.90
47310;DHT22;33046;52.270;6.832;2022-09-27T02:18:55;13.00;99.90
47310;DHT22;33046;52.270;6.832;2022-09-27T02:21:06;13.00;99.90
47310;DHT22;33046;52.270;6.832;2022-09-27T02:23:22;13.00;99.90
47310;DHT22;33046;52.270;6.832;2022-09-27T02:25:43;13.00;99.90
47310;DHT22;33046;52.270;6.832;2022-09-27T02:27:56;13.00;99.90
47310;DHT22;33046;52.270;6.832;2022-09-27T02:30:11;13.00;99.90
47310;DHT22;33046;52.270;6.832;2022-09-27T02:32:20;12.90;99.90
47310;DHT22;33046;52.270;6.832;2022-09-27T02:34:30;12.90;99.90
47310;DHT22;33046;52.270;6.832;2022-09-27T02:36:39;12.90;99.90
47310;DHT22;33046;52.270;6.832;2022-09-27T02:38:47;12.90;99.90
47310;DHT22;33046;52.270;6.832;2022-09-27T02:40:57;12.90;99.90
47310;DHT22;33046;52.270;6.832;2022-09-27T02:43:04;12.90;99.90
47310;DHT22;33046;52.270;6.832;2022-09-27T02:45:13;12.90;99.90
47310;DHT22;33046;52.270;6.832;2022-09-27T02:47:49;12.90;99.90
47310;DHT22;33046;52.270;6.832;2022-09-27T02:50:26;12.90;99.90
47310;DHT22;33046;52.270;6.832;2022-09-27T02:53:15;12.90;99.90
47310;DHT22;33046;52.270;6.832;2022-09-27T02:55:45;12.90;99.90
47310;DHT22;33046;52.270;6.832;2022-09-27T02:58:21;12.80;99.90
47310;DHT22;33046;52.270;6.832;2022-09-27T03:00:55;12.80;99.90
47310;DHT22;33046;52.270;6.832;2022-09-27T03:03:27;12.80;99.80
47310;DHT22;33046;52.270;6.832;2022-09-27T03:05:42;12.80;99.90
47310;DHT22;33046;52.270;6.832;2022-09-27T03:07:51;12.80;99.70
47310;DHT22;33046;52.270;6.832;2022-09-27T03:09:57;12.80;99.70
47310;DHT22;33046;52.270;6.832;2022-09-27T03:12:04;12.80;99.60
47310;DHT22;33046;52.270;6.832;2022-09-27T03:14:11;12.80;99.60
47310;DHT22;33046;52.270;6.832;2022-09-27T03:16:26;12.80;99.50
47310;DHT22;33046;52.270;6.832;2022-09-27T03:18:50;12.70;99.60
47310;DHT22;33046;52.270;6.832;2022-09-27T03:21:17;12.70;99.40
47310;DHT22;33046;52.270;6.832;2022-09-27T03:23:23;12.70;99.60
47310;DHT22;33046;52.270;6.832;2022-09-27T03:25:30;12.70;99.60
47310;DHT22;33046;52.270;6.832;2022-09-27T03:27:37;12.70;99.60
47310;DHT22;33046;52.270;6.832;2022-09-27T03:29:44;12.70;99.50
47310;DHT22;33046;52.270;6.832;2022-09-27T03:31:51;12.70;99.60
47310;DHT22;33046;52.270;6.832;2022-09-27T03:34:18;12.70;99.60
47310;DHT22;33046;52.270;6.832;2022-09-27T03:36:26;12.60;99.40
47310;DHT22;33046;52.270;6.832;2022-09-27T03:38:33;12.60;99.50
47310;DHT22;33046;52.270;6.832;2022-09-27T03:40:40;12.60;99.60
47310;DHT22;33046;52.270;6.832;2022-09-27T03:42:48;12.60;99.40
47310;DHT22;33046;52.270;6.832;2022-09-27T03:44:55;12.60;99.30
47310;DHT22;33046;52.270;6.832;2022-09-27T03:47:02;12.60;99.30
47310;DHT22;33046;52.270;6.832;2022-09-27T03:49:09;12.60;99.20
47310;DHT22;33046;52.270;6.832;2022-09-27T03:51:16;12.60;99.30
47310;DHT22;33046;52.270;6.832;2022-09-27T03:53:24;12.60;99.40
47310;DHT22;33046;52.270;6.832;2022-09-27T03:55:32;12.60;99.20
47310;DHT22;33046;52.270;6.832;2022-09-27T03:57:42;12.50;99.10
47310;DHT22;33046;52.270;6.832;2022-09-27T03:59:50;12.50;99.30
47310;DHT22;33046;52.270;6.832;2022-09-27T04:02:22;12.50;99.20
47310;DHT22;33046;52.270;6.832;2022-09-27T04:04:47;12.50;99.20
47310;DHT22;33046;52.270;6.832;2022-09-27T04:06:54;12.50;99.30
47310;DHT22;33046;52.270;6.832;2022-09-27T04:09:02;12.50;99.30
47310;DHT22;33046;52.270;6.832;2022-09-27T04:11:28;12.50;99.20
47310;DHT22;33046;52.270;6.832;2022-09-27T04:13:35;12.50;99.10
47310;DHT22;33046;52.270;6.832;2022-09-27T04:15:42;12.50;99.20
47310;DHT22;33046;52.270;6.832;2022-09-27T04:18:09;12.40;99.30
47310;DHT22;33046;52.270;6.832;2022-09-27T04:20:35;12.40;99.20
47310;DHT22;33046;52.270;6.832;2022-09-27T04:22:52;12.40;99.40
47310;DHT22;33046;52.270;6.832;2022-09-27T04:25:01;12.40;99.50
47310;DHT22;33046;52.270;6.832;2022-09-27T04:27:15;12.40;99.40
47310;DHT22;33046;52.270;6.832;2022-09-27T04:29:23;12.40;99.50
47310;DHT22;33046;52.270;6.832;2022-09-27T04:31:32;12.40;99.30
47310;DHT22;33046;52.270;6.832;2022-09-27T04:34:05;12.40;99.40
47310;DHT22;33046;52.270;6.832;2022-09-27T04:36:16;12.40;99.40
47310;DHT22;33046;52.270;6.832;2022-09-27T04:38:38;12.40;99.30
47310;DHT22;33046;52.270;6.832;2022-09-27T04:40:48;12.40;99.40
47310;DHT22;33046;52.270;6.832;2022-09-27T04:42:55;12.40;99.50
47310;DHT22;33046;52.270;6.832;2022-09-27T04:45:02;12.30;99.30
47310;DHT22;33046;52.270;6.832;2022-09-27T04:47:09;12.30;99.50
47310;DHT22;33046;52.270;6.832;2022-09-27T04:49:16;12.40;99.50
47310;DHT22;33046;52.270;6.832;2022-09-27T04:51:23;12.30;99.60
47310;DHT22;33046;52.270;6.832;2022-09-27T04:53:31;12.30;99.70
47310;DHT22;33046;52.270;6.832;2022-09-27T04:55:38;12.30;99.60
47310;DHT22;33046;52.270;6.832;2022-09-27T04:57:47;12.30;99.70
47310;DHT22;33046;52.270;6.832;2022-09-27T04:59:54;12.30;99.50
47310;DHT22;33046;52.270;6.832;2022-09-27T05:02:00;12.30;99.60
47310;DHT22;33046;52.270;6.832;2022-09-27T05:04:26;12.30;99.80
47310;DHT22;33046;52.270;6.832;2022-09-27T05:06:33;12.30;99.70
47310;DHT22;33046;52.270;6.832;2022-09-27T05:08:46;12.30;99.60
47310;DHT22;33046;52.270;6.832;2022-09-27T05:10:53;12.30;99.80
47310;DHT22;33046;52.270;6.832;2022-09-27T05:13:02;12.30;99.80
47310;DHT22;33046;52.270;6.832;2022-09-27T05:15:09;12.30;99.90
47310;DHT22;33046;52.270;6.832;2022-09-27T05:17:34;12.30;99.90
47310;DHT22;33046;52.270;6.832;2022-09-27T05:20:00;12.30;99.90
47310;DHT22;33046;52.270;6.832;2022-09-27T05:22:38;12.30;99.90
47310;DHT22;33046;52.270;6.832;2022-09-27T05:24:46;12.30;99.80
47310;DHT22;33046;52.270;6.832;2022-09-27T05:26:53;12.30;99.80
47310;DHT22;33046;52.270;6.832;2022-09-27T05:29:01;12.30;99.70
47310;DHT22;33046;52.270;6.832;2022-09-27T05:31:10;12.30;99.60
47310;DHT22;33046;52.270;6.832;2022-09-27T05:33:17;12.30;99.70
47310;DHT22;33046;52.270;6.832;2022-09-27T05:35:26;12.20;99.60
47310;DHT22;33046;52.270;6.832;2022-09-27T05:37:35;12.30;99.50
47310;DHT22;33046;52.270;6.832;2022-09-27T05:39:42;12.30;99.60
47310;DHT22;33046;52.270;6.832;2022-09-27T05:41:49;12.30;99.40
47310;DHT22;33046;52.270;6.832;2022-09-27T05:44:02;12.30;99.40
47310;DHT22;33046;52.270;6.832;2022-09-27T05:46:09;12.30;99.50
47310;DHT22;33046;52.270;6.832;2022-09-27T05:48:18;12.30;99.40
47310;DHT22;33046;52.270;6.832;2022-09-27T05:50:33;12.30;99.80
47310;DHT22;33046;52.270;6.832;2022-09-27T05:52:39;12.30;99.50
47310;DHT22;33046;52.270;6.832;2022-09-27T05:54:46;12.30;99.50
47310;DHT22;33046;52.270;6.832;2022-09-27T05:56:55;12.30;99.50
47310;DHT22;33046;52.270;6.832;2022-09-27T05:59:24;12.30;99.50
47310;DHT22;33046;52.270;6.832;2022-09-27T06:01:49;12.30;99.60
47310;DHT22;33046;52.270;6.832;2022-09-27T06:04:16;12.30;99.50
47310;DHT22;33046;52.270;6.832;2022-09-27T06:06:51;12.30;99.60
47310;DHT22;33046;52.270;6.832;2022-09-27T06:08:58;12.30;99.50
47310;DHT22;33046;52.270;6.832;2022-09-27T06:11:11;12.40;99.60
47310;DHT22;33046;52.270;6.832;2022-09-27T06:13:18;12.40;99.50
47310;DHT22;33046;52.270;6.832;2022-09-27T06:15:27;12.40;99.50
47310;DHT22;33046;52.270;6.832;2022-09-27T06:17:34;12.40;99.50
47310;DHT22;33046;52.270;6.832;2022-09-27T06:19:49;12.40;99.40
47310;DHT22;33046;52.270;6.832;2022-09-27T06:21:57;12.40;99.40
47310;DHT22;33046;52.270;6.832;2022-09-27T06:24:10;12.40;99.20
47310;DHT22;33046;52.270;6.832;2022-09-27T06:26:17;12.40;99.20
47310;DHT22;33046;52.270;6.832;2022-09-27T06:28:31;12.40;99.10
47310;DHT22;33046;52.270;6.832;2022-09-27T06:30:40;12.50;99.20
47310;DHT22;33046;52.270;6.832;2022-09-27T06:32:59;12.50;99.20
47310;DHT22;33046;52.270;6.832;2022-09-27T06:35:10;12.50;99.00
47310;DHT22;33046;52.270;6.832;2022-09-27T06:37:16;12.50;99.10
47310;DHT22;33046;52.270;6.832;2022-09-27T06:39:23;12.50;98.90
47310;DHT22;33046;52.270;6.832;2022-09-27T06:41:40;12.50;99.00
47310;DHT22;33046;52.270;6.832;2022-09-27T06:43:55;12.50;98.80
47310;DHT22;33046;52.270;6.832;2022-09-27T06:46:35;12.50;98.70
47310;DHT22;33046;52.270;6.832;2022-09-27T06:48:48;12.60;98.70
47310;DHT22;33046;52.270;6.832;2022-09-27T06:50:58;12.60;98.80
47310;DHT22;33046;52.270;6.832;2022-09-27T06:53:06;12.60;98.70
47310;DHT22;33046;52.270;6.832;2022-09-27T06:55:13;12.70;98.60
47310;DHT22;33046;52.270;6.832;2022-09-27T06:57:20;12.70;98.30
47310;DHT22;33046;52.270;6.832;2022-09-27T06:59:27;12.70;98.60
47310;DHT22;33046;52.270;6.832;2022-09-27T07:01:54;12.80;98.50
47310;DHT22;33046;52.270;6.832;2022-09-27T07:04:04;12.80;98.60
47310;DHT22;33046;52.270;6.832;2022-09-27T07:06:21;12.80;98.30
47310;DHT22;33046;52.270;6.832;2022-09-27T07:08:33;12.90;98.30
47310;DHT22;33046;52.270;6.832;2022-09-27T07:10:40;12.80;98.20
47310;DHT22;33046;52.270;6.832;2022-09-27T07:12:48;12.90;98.10
47310;DHT22;33046;52.270;6.832;2022-09-27T07:14:56;12.90;98.10
47310;DHT22;33046;52.270;6.832;2022-09-27T07:17:04;12.90;98.00
47310;DHT22;33046;52.270;6.832;2022-09-27T07:19:20;12.90;98.00
47310;DHT22;33046;52.270;6.832;2022-09-27T07:21:28;12.90;98.10
47310;DHT22;33046;52.270;6.832;2022-09-27T07:23:35;13.00;98.10
47310;DHT22;33046;52.270;6.832;2022-09-27T07:25:43;13.00;97.80
47310;DHT22;33046;52.270;6.832;2022-09-27T07:27:51;13.00;97.80
47310;DHT22;33046;52.270;6.832;2022-09-27T07:29:58;12.90;98.00
47310;DHT22;33046;52.270;6.832;2022-09-27T07:32:06;12.90;98.00
47310;DHT22;33046;52.270;6.832;2022-09-27T07:34:13;13.00;97.90
47310;DHT22;33046;52.270;6.832;2022-09-27T07:36:20;13.00;97.80
47310;DHT22;33046;52.270;6.832;2022-09-27T07:38:27;13.00;97.80
47310;DHT22;33046;52.270;6.832;2022-09-27T07:40:35;13.00;97.70
47310;DHT22;33046;52.270;6.832;2022-09-27T07:42:42;13.00;97.70
47310;DHT22;33046;52.270;6.832;2022-09-27T07:44:49;13.00;97.80
47310;DHT22;33046;52.270;6.832;2022-09-27T07:47:07;13.10;97.90
47310;DHT22;33046;52.270;6.832;2022-09-27T07:49:37;13.10;97.90
47310;DHT22;33046;52.270;6.832;2022-09-27T07:51:55;13.20;97.80
47310;DHT22;33046;52.270;6.832;2022-09-27T07:54:25;13.20;97.80
47310;DHT22;33046;52.270;6.832;2022-09-27T07:56:50;13.30;97.60
47310;DHT22;33046;52.270;6.832;2022-09-27T07:58:59;13.20;97.80
47310;DHT22;33046;52.270;6.832;2022-09-27T08:01:06;13.30;97.70
47310;DHT22;33046;52.270;6.832;2022-09-27T08:03:15;13.30;97.70
47310;DHT22;33046;52.270;6.832;2022-09-27T08:05:24;13.30;97.60
47310;DHT22;33046;52.270;6.832;2022-09-27T08:07:31;13.30;97.60
47310;DHT22;33046;52.270;6.832;2022-09-27T08:09:39;13.40;97.60
47310;DHT22;33046;52.270;6.832;2022-09-27T08:11:46;13.40;97.90
47310;DHT22;33046;52.270;6.832;2022-09-27T08:13:53;13.50;97.90
47310;DHT22;33046;52.270;6.832;2022-09-27T08:16:04;13.50;97.80
47310;DHT22;33046;52.270;6.832;2022-09-27T08:18:27;13.50;97.70
47310;DHT22;33046;52.270;6.832;2022-09-27T08:20:34;13.60;97.70
47310;DHT22;33046;52.270;6.832;2022-09-27T08:23:01;13.60;97.70
47310;DHT22;33046;52.270;6.832;2022-09-27T08:25:15;13.70;97.80
47310;DHT22;33046;52.270;6.832;2022-09-27T08:27:31;13.70;97.40
47310;DHT22;33046;52.270;6.832;2022-09-27T08:29:41;13.70;97.50
47310;DHT22;33046;52.270;6.832;2022-09-27T08:31:49;13.80;97.50
47310;DHT22;33046;52.270;6.832;2022-09-27T08:33:59;13.80;97.30
47310;DHT22;33046;52.270;6.832;2022-09-27T08:36:09;13.90;97.30
47310;DHT22;33046;52.270;6.832;2022-09-27T08:38:16;13.90;97.10
47310;DHT22;33046;52.270;6.832;2022-09-27T08:40:27;13.80;97.00
47310;DHT22;33046;52.270;6.832;2022-09-27T08:42:43;13.90;96.80
47310;DHT22;33046;52.270;6.832;2022-09-27T08:44:58;13.90;97.20
47310;DHT22;33046;52.270;6.832;2022-09-27T08:47:14;13.90;97.20
47310;DHT22;33046;52.270;6.832;2022-09-27T08:49:28;13.90;97.20
47310;DHT22;33046;52.270;6.832;2022-09-27T08:51:38;14.00;97.10
47310;DHT22;33046;52.270;6.832;2022-09-27T08:53:49;14.00;97.00
47310;DHT22;33046;52.270;6.832;2022-09-27T08:56:00;14.00;96.60
47310;DHT22;33046;52.270;6.832;2022-09-27T08:58:13;14.00;96.90
47310;DHT22;33046;52.270;6.832;2022-09-27T09:00:28;14.00;96.90
47310;DHT22;33046;52.270;6.832;2022-09-27T09:02:36;14.10;96.80
47310;DHT22;33046;52.270;6.832;2022-09-27T09:04:47;14.10;96.70
47310;DHT22;33046;52.270;6.832;2022-09-27T09:07:01;14.20;96.90
47310;DHT22;33046;52.270;6.832;2022-09-27T09:09:21;14.20;96.80
47310;DHT22;33046;52.270;6.832;2022-09-27T09:11:49;14.30;96.90
47310;DHT22;33046;52.270;6.832;2022-09-27T09:14:27;14.30;96.40
47310;DHT22;33046;52.270;6.832;2022-09-27T09:16:43;14.30;96.30
47310;DHT22;33046;52.270;6.832;2022-09-27T09:19:07;14.40;96.00
47310;DHT22;33046;52.270;6.832;2022-09-27T09:21:34;14.40;96.30
47310;DHT22;33046;52.270;6.832;2022-09-27T09:24:10;14.50;96.10
47310;DHT22;33046;52.270;6.832;2022-09-27T09:26:26;14.50;96.00
47310;DHT22;33046;52.270;6.832;2022-09-27T09:28:48;14.60;95.50
47310;DHT22;33046;52.270;6.832;2022-09-27T09:31:03;14.50;95.30
47310;DHT22;33046;52.270;6.832;2022-09-27T09:33:22;14.60;95.10
47310;DHT22;33046;52.270;6.832;2022-09-27T09:35:35;14.70;95.20
47310;DHT22;33046;52.270;6.832;2022-09-27T09:37:48;14.60;95.60
47310;DHT22;33046;52.270;6.832;2022-09-27T09:39:59;14.60;95.30
47310;DHT22;33046;52.270;6.832;2022-09-27T09:42:13;14.60;95.30
47310;DHT22;33046;52.270;6.832;2022-09-27T09:44:25;14.70;95.30
47310;DHT22;33046;52.270;6.832;2022-09-27T09:46:36;14.80;95.40
47310;DHT22;33046;52.270;6.832;2022-09-27T09:48:50;14.90;95.10
47310;DHT22;33046;52.270;6.832;2022-09-27T09:51:00;15.00;94.50
47310;DHT22;33046;52.270;6.832;2022-09-27T09:53:15;15.10;94.50
47310;DHT22;33046;52.270;6.832;2022-09-27T09:55:26;15.10;94.30
47310;DHT22;33046;52.270;6.832;2022-09-27T09:57:39;15.10;93.50
47310;DHT22;33046;52.270;6.832;2022-09-27T09:59:57;15.10;93.70
47310;DHT22;33046;52.270;6.832;2022-09-27T10:02:16;15.00;93.00
47310;DHT22;33046;52.270;6.832;2022-09-27T10:04:26;15.00;92.90
47310;DHT22;33046;52.270;6.832;2022-09-27T10:06:35;15.00;93.40
47310;DHT22;33046;52.270;6.832;2022-09-27T10:08:44;15.10;93.30
47310;DHT22;33046;52.270;6.832;2022-09-27T10:11:17;15.10;93.30
47310;DHT22;33046;52.270;6.832;2022-09-27T10:13:32;15.10;93.80
47310;DHT22;33046;52.270;6.832;2022-09-27T10:15:41;15.10;94.10
47310;DHT22;33046;52.270;6.832;2022-09-27T10:17:50;15.10;94.50
47310;DHT22;33046;52.270;6.832;2022-09-27T10:20:01;15.10;94.70
47310;DHT22;33046;52.270;6.832;2022-09-27T10:22:13;15.00;94.90
47310;DHT22;33046;52.270;6.832;2022-09-27T10:24:24;14.90;95.30
47310;DHT22;33046;52.270;6.832;2022-09-27T10:26:45;14.80;95.10
47310;DHT22;33046;52.270;6.832;2022-09-27T10:28:53;14.80;94.80
47310;DHT22;33046;52.270;6.832;2022-09-27T10:31:15;14.80;94.40
47310;DHT22;33046;52.270;6.832;2022-09-27T10:33:38;14.70;94.80
47310;DHT22;33046;52.270;6.832;2022-09-27T10:35:46;14.60;94.70
47310;DHT22;33046;52.270;6.832;2022-09-27T10:38:21;14.50;95.00
47310;DHT22;33046;52.270;6.832;2022-09-27T10:40:31;14.50;94.90
47310;DHT22;33046;52.270;6.832;2022-09-27T10:42:41;14.60;95.10
47310;DHT22;33046;52.270;6.832;2022-09-27T10:44:50;14.60;95.60
47310;DHT22;33046;52.270;6.832;2022-09-27T10:47:08;14.60;95.80
47310;DHT22;33046;52.270;6.832;2022-09-27T10:49:50;14.60;95.70
47310;DHT22;33046;52.270;6.832;2022-09-27T10:52:22;14.70;95.70
47310;DHT22;33046;52.270;6.832;2022-09-27T10:54:32;14.70;95.90
47310;DHT22;33046;52.270;6.832;2022-09-27T10:56:42;14.70;96.20
47310;DHT22;33046;52.270;6.832;2022-09-27T10:58:49;14.70;96.50
47310;DHT22;33046;52.270;6.832;2022-09-27T11:00:59;14.70;96.10
47310;DHT22;33046;52.270;6.832;2022-09-27T11:03:14;14.60;96.20
47310;DHT22;33046;52.270;6.832;2022-09-27T11:05:33;14.60;96.40
47310;DHT22;33046;52.270;6.832;2022-09-27T11:07:48;14.60;96.30
47310;DHT22;33046;52.270;6.832;2022-09-27T11:09:57;14.70;96.70
47310;DHT22;33046;52.270;6.832;2022-09-27T11:12:10;14.80;97.00
47310;DHT22;33046;52.270;6.832;2022-09-27T11:14:20;14.90;97.00
47310;DHT22;33046;52.270;6.832;2022-09-27T11:16:40;14.90;96.70
47310;DHT22;33046;52.270;6.832;2022-09-27T11:19:00;14.90;95.80
47310;DHT22;33046;52.270;6.832;2022-09-27T11:21:15;14.90;95.70
47310;DHT22;33046;52.270;6.832;2022-09-27T11:23:42;14.90;95.10
47310;DHT22;33046;52.270;6.832;2022-09-27T11:26:08;14.90;94.80
47310;DHT22;33046;52.270;6.832;2022-09-27T11:28:30;15.00;95.20
47310;DHT22;33046;52.270;6.832;2022-09-27T11:30:46;15.00;95.30
47310;DHT22;33046;52.270;6.832;2022-09-27T11:36:13;15.10;94.70
47310;DHT22;33046;52.270;6.832;2022-09-27T11:38:30;15.10;95.20
47310;DHT22;33046;52.270;6.832;2022-09-27T11:41:07;15.10;95.10
47310;DHT22;33046;52.270;6.832;2022-09-27T11:43:26;15.10;94.70
47310;DHT22;33046;52.270;6.832;2022-09-27T11:45:46;15.00;94.70
47310;DHT22;33046;52.270;6.832;2022-09-27T11:48:30;15.00;95.10
47310;DHT22;33046;52.270;6.832;2022-09-27T11:50:56;15.00;94.90
47310;DHT22;33046;52.270;6.832;2022-09-27T11:53:16;15.00;94.50
47310;DHT22;33046;52.270;6.832;2022-09-27T11:55:34;15.00;94.20
47310;DHT22;33046;52.270;6.832;2022-09-27T11:57:51;15.10;94.90
47310;DHT22;33046;52.270;6.832;2022-09-27T12:00:26;15.10;94.70
47310;DHT22;33046;52.270;6.832;2022-09-27T12:05:38;15.10;93.90
47310;DHT22;33046;52.270;6.832;2022-09-27T12:07:54;15.10;94.10
47310;DHT22;33046;52.270;6.832;2022-09-27T12:10:12;15.10;93.60
47310;DHT22;33046;52.270;6.832;2022-09-27T12:12:22;15.10;94.00
47310;DHT22;33046;52.270;6.832;2022-09-27T12:14:35;15.00;94.20
47310;DHT22;33046;52.270;6.832;2022-09-27T12:16:46;14.90;94.20
47310;DHT22;33046;52.270;6.832;2022-09-27T12:18:54;14.90;94.50
47310;DHT22;33046;52.270;6.832;2022-09-27T12:21:30;14.80;94.50
47310;DHT22;33046;52.270;6.832;2022-09-27T12:23:40;14.70;94.40
47310;DHT22;33046;52.270;6.832;2022-09-27T12:25:59;14.70;94.40
47310;DHT22;33046;52.270;6.832;2022-09-27T12:28:17;14.70;94.60
47310;DHT22;33046;52.270;6.832;2022-09-27T12:30:25;14.60;94.50
47310;DHT22;33046;52.270;6.832;2022-09-27T12:32:36;14.50;94.70
47310;DHT22;33046;52.270;6.832;2022-09-27T12:34:53;14.50;95.00
47310;DHT22;33046;52.270;6.832;2022-09-27T12:37:07;14.50;95.60
47310;DHT22;33046;52.270;6.832;2022-09-27T12:39:18;14.50;95.60
47310;DHT22;33046;52.270;6.832;2022-09-27T12:41:36;14.40;96.00
47310;DHT22;33046;52.270;6.832;2022-09-27T12:43:58;14.50;95.60
47310;DHT22;33046;52.270;6.832;2022-09-27T12:46:26;14.50;95.50
47310;DHT22;33046;52.270;6.832;2022-09-27T12:48:43;14.50;95.90
47310;DHT22;33046;52.270;6.832;2022-09-27T12:50:56;14.60;96.00
47310;DHT22;33046;52.270;6.832;2022-09-27T12:53:09;14.60;96.40
47310;DHT22;33046;52.270;6.832;2022-09-27T12:55:31;14.60;96.10
47310;DHT22;33046;52.270;6.832;2022-09-27T12:57:45;14.70;96.30
47310;DHT22;33046;52.270;6.832;2022-09-27T13:00:07;14.80;96.30
47310;DHT22;33046;52.270;6.832;2022-09-27T13:07:37;14.80;95.20
47310;DHT22;33046;52.270;6.832;2022-09-27T13:12:25;14.90;94.90
47310;DHT22;33046;52.270;6.832;2022-09-27T13:14:39;15.00;95.20
47310;DHT22;33046;52.270;6.832;2022-09-27T13:16:48;14.90;95.40
47310;DHT22;33046;52.270;6.832;2022-09-27T13:18:58;15.00;95.30
47310;DHT22;33046;52.270;6.832;2022-09-27T13:21:07;15.00;95.40
47310;DHT22;33046;52.270;6.832;2022-09-27T13:23:56;15.00;95.00
47310;DHT22;33046;52.270;6.832;2022-09-27T13:26:21;14.90;94.70
47310;DHT22;33046;52.270;6.832;2022-09-27T13:28:56;14.90;94.40
47310;DHT22;33046;52.270;6.832;2022-09-27T13:31:11;14.90;93.90
47310;DHT22;33046;52.270;6.832;2022-09-27T13:33:32;14.90;93.70
47310;DHT22;33046;52.270;6.832;2022-09-27T13:36:07;14.90;92.90
47310;DHT22;33046;52.270;6.832;2022-09-27T13:38:20;14.90;93.60
47310;DHT22;33046;52.270;6.832;2022-09-27T13:40:30;14.80;93.50
47310;DHT22;33046;52.270;6.832;2022-09-27T13:43:20;14.90;93.10
47310;DHT22;33046;52.270;6.832;2022-09-27T13:45:38;14.80;92.90
47310;DHT22;33046;52.270;6.832;2022-09-27T13:47:48;14.80;93.10
47310;DHT22;33046;52.270;6.832;2022-09-27T13:50:16;14.90;93.30
47310;DHT22;33046;52.270;6.832;2022-09-27T13:52:33;14.90;93.30
47310;DHT22;33046;52.270;6.832;2022-09-27T13:55:03;14.90;93.80
47310;DHT22;33046;52.270;6.832;2022-09-27T14:00:01;14.90;93.60
47310;DHT22;33046;52.270;6.832;2022-09-27T14:02:31;14.80;93.70
47310;DHT22;33046;52.270;6.832;2022-09-27T14:04:46;14.90;93.70
47310;DHT22;33046;52.270;6.832;2022-09-27T14:06:56;14.80;93.80
47310;DHT22;33046;52.270;6.832;2022-09-27T14:09:15;14.80;93.70
47310;DHT22;33046;52.270;6.832;2022-09-27T14:11:26;14.70;93.10
47310;DHT22;33046;52.270;6.832;2022-09-27T14:13:34;14.70;92.90
47310;DHT22;33046;52.270;6.832;2022-09-27T14:15:46;14.70;93.20
47310;DHT22;33046;52.270;6.832;2022-09-27T14:17:54;14.70;93.10
47310;DHT22;33046;52.270;6.832;2022-09-27T14:20:05;14.70;92.90
47310;DHT22;33046;52.270;6.832;2022-09-27T14:22:12;14.70;92.90
47310;DHT22;33046;52.270;6.832;2022-09-27T14:24:45;14.70;93.10
47310;DHT22;33046;52.270;6.832;2022-09-27T14:27:10;14.80;92.80
47310;DHT22;33046;52.270;6.832;2022-09-27T14:29:20;14.80;92.20
47310;DHT22;33046;52.270;6.832;2022-09-27T14:31:27;14.80;92.20
47310;DHT22;33046;52.270;6.832;2022-09-27T14:34:05;14.80;91.70